sensor_id;sensor_type;location;lat;lon;timestamp;P1;durP1;ratioP1;P2;durP2;ratioP2
23782;SDS011;12071;50.850;4.446;2022-08-19T00:01:35;22.30;;;17.70;;
23782;SDS011;12071;50.850;4.446;2022-08-19T00:04:04;24.13;;;21.17;;
23782;SDS011;12071;50.850;4.446;2022-08-19T00:06:33;28.02;;;21.75;;
23782;SDS011;12071;50.850;4.446;2022-08-19T00:09:00;25.15;;;20.98;;
23782;SDS011;12071;50.850;4.446;2022-08-19T00:11:26;24.65;;;18.60;;
23782;SDS011;12071;50.850;4.446;2022-08-19T00:13:52;24.42;;;20.38;;
23782;SDS011;12071;50.850;4.446;2022-08-19T00:16:18;35.45;;;25.65;;
23782;SDS011;12071;50.850;4.446;2022-08-19T00:18:45;29.90;;;23.05;;
23782;SDS011;12071;50.850;4.446;2022-08-19T00:21:12;33.80;;;26.88;;
23782;SDS011;12071;50.850;4.446;2022-08-19T00:23:38;35.47;;;28.25;;
23782;SDS011;12071;50.850;4.446;2022-08-19T00:26:05;33.90;;;27.13;;
23782;SDS011;12071;50.850;4.446;2022-08-19T00:28:31;43.10;;;32.45;;
23782;SDS011;12071;50.850;4.446;2022-08-19T00:30:58;38.55;;;29.27;;
23782;SDS011;12071;50.850;4.446;2022-08-19T00:33:24;46.00;;;33.58;;
23782;SDS011;12071;50.850;4.446;2022-08-19T00:35:50;48.28;;;35.55;;
23782;SDS011;12071;50.850;4.446;2022-08-19T00:38:15;56.08;;;38.13;;
23782;SDS011;12071;50.850;4.446;2022-08-19T00:40:44;55.70;;;37.22;;
23782;SDS011;12071;50.850;4.446;2022-08-19T00:43:12;52.05;;;35.60;;
23782;SDS011;12071;50.850;4.446;2022-08-19T00:45:42;55.35;;;37.15;;
23782;SDS011;12071;50.850;4.446;2022-08-19T00:48:09;55.72;;;39.55;;
23782;SDS011;12071;50.850;4.446;2022-08-19T00:50:35;60.95;;;40.45;;
23782;SDS011;12071;50.850;4.446;2022-08-19T00:53:04;61.50;;;38.80;;
23782;SDS011;12071;50.850;4.446;2022-08-19T00:55:31;72.15;;;44.30;;
23782;SDS011;12071;50.850;4.446;2022-08-19T00:57:59;74.97;;;45.90;;
23782;SDS011;12071;50.850;4.446;2022-08-19T01:00:28;81.35;;;49.28;;
23782;SDS011;12071;50.850;4.446;2022-08-19T01:02:54;74.07;;;46.45;;
23782;SDS011;12071;50.850;4.446;2022-08-19T01:05:21;74.57;;;47.05;;
23782;SDS011;12071;50.850;4.446;2022-08-19T01:07:52;75.35;;;47.78;;
23782;SDS011;12071;50.850;4.446;2022-08-19T01:10:20;76.40;;;45.90;;
23782;SDS011;12071;50.850;4.446;2022-08-19T01:12:49;75.35;;;47.67;;
23782;SDS011;12071;50.850;4.446;2022-08-19T01:15:16;74.88;;;49.15;;
23782;SDS011;12071;50.850;4.446;2022-08-19T01:17:45;74.15;;;46.10;;
23782;SDS011;12071;50.850;4.446;2022-08-19T01:20:15;73.68;;;46.75;;
23782;SDS011;12071;50.850;4.446;2022-08-19T01:22:45;68.00;;;44.05;;
23782;SDS011;12071;50.850;4.446;2022-08-19T01:25:13;65.68;;;42.58;;
23782;SDS011;12071;50.850;4.446;2022-08-19T01:27:43;66.93;;;43.55;;
23782;SDS011;12071;50.850;4.446;2022-08-19T01:30:13;66.00;;;42.22;;
23782;SDS011;12071;50.850;4.446;2022-08-19T01:32:41;66.17;;;42.70;;
23782;SDS011;12071;50.850;4.446;2022-08-19T01:35:08;64.47;;;42.13;;
23782;SDS011;12071;50.850;4.446;2022-08-19T01:37:41;63.83;;;42.40;;
23782;SDS011;12071;50.850;4.446;2022-08-19T01:40:16;61.38;;;40.47;;
23782;SDS011;12071;50.850;4.446;2022-08-19T01:42:45;62.40;;;41.47;;
23782;SDS011;12071;50.850;4.446;2022-08-19T01:45:15;56.55;;;37.22;;
23782;SDS011;12071;50.850;4.446;2022-08-19T01:47:42;49.58;;;35.28;;
23782;SDS011;12071;50.850;4.446;2022-08-19T01:50:08;49.60;;;35.17;;
23782;SDS011;12071;50.850;4.446;2022-08-19T01:52:36;46.38;;;32.75;;
23782;SDS011;12071;50.850;4.446;2022-08-19T01:55:03;43.80;;;33.30;;
23782;SDS011;12071;50.850;4.446;2022-08-19T01:57:29;43.38;;;29.27;;
23782;SDS011;12071;50.850;4.446;2022-08-19T01:59:55;36.60;;;27.10;;
23782;SDS011;12071;50.850;4.446;2022-08-19T02:02:21;37.90;;;27.92;;
23782;SDS011;12071;50.850;4.446;2022-08-19T02:04:47;33.58;;;25.17;;
23782;SDS011;12071;50.850;4.446;2022-08-19T02:07:13;31.40;;;23.40;;
23782;SDS011;12071;50.850;4.446;2022-08-19T02:09:38;33.58;;;24.00;;
23782;SDS011;12071;50.850;4.446;2022-08-19T02:12:04;30.58;;;23.45;;
23782;SDS011;12071;50.850;4.446;2022-08-19T02:14:33;31.88;;;23.23;;
23782;SDS011;12071;50.850;4.446;2022-08-19T02:16:59;27.80;;;21.65;;
23782;SDS011;12071;50.850;4.446;2022-08-19T02:19:26;32.03;;;22.05;;
23782;SDS011;12071;50.850;4.446;2022-08-19T02:21:52;32.42;;;25.13;;
23782;SDS011;12071;50.850;4.446;2022-08-19T02:24:17;30.77;;;23.38;;
23782;SDS011;12071;50.850;4.446;2022-08-19T02:26:43;34.78;;;23.00;;
23782;SDS011;12071;50.850;4.446;2022-08-19T02:29:09;30.92;;;21.73;;
23782;SDS011;12071;50.850;4.446;2022-08-19T02:31:34;28.85;;;20.52;;
23782;SDS011;12071;50.850;4.446;2022-08-19T02:34:00;25.52;;;19.52;;
23782;SDS011;12071;50.850;4.446;2022-08-19T02:36:26;25.23;;;19.73;;
23782;SDS011;12071;50.850;4.446;2022-08-19T02:38:52;28.27;;;20.80;;
23782;SDS011;12071;50.850;4.446;2022-08-19T02:41:21;29.17;;;20.95;;
23782;SDS011;12071;50.850;4.446;2022-08-19T02:43:48;29.60;;;21.90;;
23782;SDS011;12071;50.850;4.446;2022-08-19T02:48:47;33.33;;;25.67;;
23782;SDS011;12071;50.850;4.446;2022-08-19T02:51:17;34.83;;;25.63;;
23782;SDS011;12071;50.850;4.446;2022-08-19T02:53:50;35.30;;;26.23;;
23782;SDS011;12071;50.850;4.446;2022-08-19T02:56:16;35.33;;;26.20;;
23782;SDS011;12071;50.850;4.446;2022-08-19T02:58:43;33.75;;;25.30;;
23782;SDS011;12071;50.850;4.446;2022-08-19T03:01:09;33.55;;;22.60;;
23782;SDS011;12071;50.850;4.446;2022-08-19T03:03:36;29.90;;;22.73;;
23782;SDS011;12071;50.850;4.446;2022-08-19T03:06:03;30.30;;;23.02;;
23782;SDS011;12071;50.850;4.446;2022-08-19T03:08:38;31.77;;;23.20;;
23782;SDS011;12071;50.850;4.446;2022-08-19T03:11:05;33.65;;;23.92;;
23782;SDS011;12071;50.850;4.446;2022-08-19T03:13:30;32.70;;;22.25;;
23782;SDS011;12071;50.850;4.446;2022-08-19T03:15:56;33.72;;;20.98;;
23782;SDS011;12071;50.850;4.446;2022-08-19T03:18:22;34.03;;;20.73;;
23782;SDS011;12071;50.850;4.446;2022-08-19T03:20:49;32.05;;;20.70;;
23782;SDS011;12071;50.850;4.446;2022-08-19T03:23:21;26.15;;;18.95;;
23782;SDS011;12071;50.850;4.446;2022-08-19T03:25:48;32.13;;;20.73;;
23782;SDS011;12071;50.850;4.446;2022-08-19T03:28:15;27.85;;;19.85;;
23782;SDS011;12071;50.850;4.446;2022-08-19T03:30:41;32.35;;;22.42;;
23782;SDS011;12071;50.850;4.446;2022-08-19T03:33:08;32.95;;;21.95;;
23782;SDS011;12071;50.850;4.446;2022-08-19T03:35:36;33.88;;;23.05;;
23782;SDS011;12071;50.850;4.446;2022-08-19T03:38:03;32.60;;;20.98;;
23782;SDS011;12071;50.850;4.446;2022-08-19T03:40:29;34.05;;;22.23;;
23782;SDS011;12071;50.850;4.446;2022-08-19T03:42:55;32.47;;;21.90;;
23782;SDS011;12071;50.850;4.446;2022-08-19T03:45:22;32.33;;;21.85;;
23782;SDS011;12071;50.850;4.446;2022-08-19T03:47:48;30.70;;;21.13;;
23782;SDS011;12071;50.850;4.446;2022-08-19T03:50:14;29.27;;;19.88;;
23782;SDS011;12071;50.850;4.446;2022-08-19T03:52:40;33.20;;;22.00;;
23782;SDS011;12071;50.850;4.446;2022-08-19T03:55:06;33.83;;;22.00;;
23782;SDS011;12071;50.850;4.446;2022-08-19T03:57:32;29.65;;;20.58;;
23782;SDS011;12071;50.850;4.446;2022-08-19T03:59:59;33.83;;;20.48;;
23782;SDS011;12071;50.850;4.446;2022-08-19T04:02:25;41.10;;;23.73;;
23782;SDS011;12071;50.850;4.446;2022-08-19T04:04:52;34.72;;;21.88;;
23782;SDS011;12071;50.850;4.446;2022-08-19T04:07:19;37.58;;;22.50;;
23782;SDS011;12071;50.850;4.446;2022-08-19T04:09:46;32.28;;;23.70;;
23782;SDS011;12071;50.850;4.446;2022-08-19T04:12:12;35.42;;;23.20;;
23782;SDS011;12071;50.850;4.446;2022-08-19T04:14:38;36.65;;;24.23;;
23782;SDS011;12071;50.850;4.446;2022-08-19T04:17:04;37.47;;;26.05;;
23782;SDS011;12071;50.850;4.446;2022-08-19T04:19:30;34.80;;;23.83;;
23782;SDS011;12071;50.850;4.446;2022-08-19T04:21:57;35.38;;;24.10;;
23782;SDS011;12071;50.850;4.446;2022-08-19T04:24:23;46.38;;;22.73;;
23782;SDS011;12071;50.850;4.446;2022-08-19T04:26:49;36.30;;;23.35;;
23782;SDS011;12071;50.850;4.446;2022-08-19T04:29:16;33.03;;;21.85;;
23782;SDS011;12071;50.850;4.446;2022-08-19T04:31:46;33.20;;;20.38;;
23782;SDS011;12071;50.850;4.446;2022-08-19T04:34:13;31.88;;;21.35;;
23782;SDS011;12071;50.850;4.446;2022-08-19T04:36:41;34.53;;;21.33;;
23782;SDS011;12071;50.850;4.446;2022-08-19T04:39:16;33.78;;;21.23;;
23782;SDS011;12071;50.850;4.446;2022-08-19T04:41:44;33.45;;;20.15;;
23782;SDS011;12071;50.850;4.446;2022-08-19T04:44:29;33.72;;;20.25;;
23782;SDS011;12071;50.850;4.446;2022-08-19T04:46:59;34.25;;;21.10;;
23782;SDS011;12071;50.850;4.446;2022-08-19T04:49:25;30.67;;;20.00;;
23782;SDS011;12071;50.850;4.446;2022-08-19T04:51:52;32.60;;;18.38;;
23782;SDS011;12071;50.850;4.446;2022-08-19T04:54:19;29.30;;;18.35;;
23782;SDS011;12071;50.850;4.446;2022-08-19T04:56:47;32.75;;;19.48;;
23782;SDS011;12071;50.850;4.446;2022-08-19T04:59:14;27.85;;;17.70;;
23782;SDS011;12071;50.850;4.446;2022-08-19T05:01:42;32.08;;;19.02;;
23782;SDS011;12071;50.850;4.446;2022-08-19T05:04:08;28.58;;;18.08;;
23782;SDS011;12071;50.850;4.446;2022-08-19T05:06:35;33.70;;;17.92;;
23782;SDS011;12071;50.850;4.446;2022-08-19T05:09:04;31.05;;;16.83;;
23782;SDS011;12071;50.850;4.446;2022-08-19T05:11:31;30.48;;;17.90;;
23782;SDS011;12071;50.850;4.446;2022-08-19T05:14:00;26.92;;;17.35;;
23782;SDS011;12071;50.850;4.446;2022-08-19T05:16:27;27.48;;;16.33;;
23782;SDS011;12071;50.850;4.446;2022-08-19T05:18:53;30.17;;;17.17;;
23782;SDS011;12071;50.850;4.446;2022-08-19T05:21:38;30.15;;;17.58;;
23782;SDS011;12071;50.850;4.446;2022-08-19T05:24:23;31.15;;;17.65;;
23782;SDS011;12071;50.850;4.446;2022-08-19T05:26:51;30.95;;;17.33;;
23782;SDS011;12071;50.850;4.446;2022-08-19T05:29:19;34.20;;;20.02;;
23782;SDS011;12071;50.850;4.446;2022-08-19T05:31:46;31.35;;;20.13;;
23782;SDS011;12071;50.850;4.446;2022-08-19T05:34:14;34.80;;;20.85;;
23782;SDS011;12071;50.850;4.446;2022-08-19T05:36:46;33.67;;;19.90;;
23782;SDS011;12071;50.850;4.446;2022-08-19T05:39:17;35.20;;;22.25;;
23782;SDS011;12071;50.850;4.446;2022-08-19T05:41:52;40.88;;;22.23;;
23782;SDS011;12071;50.850;4.446;2022-08-19T05:44:21;39.70;;;22.85;;
23782;SDS011;12071;50.850;4.446;2022-08-19T05:46:52;33.75;;;22.73;;
23782;SDS011;12071;50.850;4.446;2022-08-19T05:49:19;32.45;;;21.50;;
23782;SDS011;12071;50.850;4.446;2022-08-19T05:51:47;35.08;;;22.25;;
23782;SDS011;12071;50.850;4.446;2022-08-19T05:54:13;31.33;;;20.83;;
23782;SDS011;12071;50.850;4.446;2022-08-19T05:56:39;34.10;;;20.85;;
23782;SDS011;12071;50.850;4.446;2022-08-19T05:59:06;28.75;;;20.05;;
23782;SDS011;12071;50.850;4.446;2022-08-19T06:01:34;30.77;;;19.15;;
23782;SDS011;12071;50.850;4.446;2022-08-19T06:04:02;30.48;;;19.95;;
23782;SDS011;12071;50.850;4.446;2022-08-19T06:06:28;28.30;;;18.13;;
23782;SDS011;12071;50.850;4.446;2022-08-19T06:08:54;27.83;;;17.38;;
23782;SDS011;12071;50.850;4.446;2022-08-19T06:14:14;26.60;;;15.75;;
23782;SDS011;12071;50.850;4.446;2022-08-19T06:16:42;22.73;;;16.13;;
23782;SDS011;12071;50.850;4.446;2022-08-19T06:19:11;21.73;;;14.70;;
23782;SDS011;12071;50.850;4.446;2022-08-19T06:21:41;24.00;;;14.20;;
23782;SDS011;12071;50.850;4.446;2022-08-19T06:24:09;23.80;;;14.05;;
23782;SDS011;12071;50.850;4.446;2022-08-19T06:26:37;18.02;;;13.05;;
23782;SDS011;12071;50.850;4.446;2022-08-19T06:29:05;23.17;;;12.70;;
23782;SDS011;12071;50.850;4.446;2022-08-19T06:31:32;17.60;;;11.55;;
23782;SDS011;12071;50.850;4.446;2022-08-19T06:34:03;18.98;;;10.23;;
23782;SDS011;12071;50.850;4.446;2022-08-19T06:36:35;15.10;;;9.90;;
23782;SDS011;12071;50.850;4.446;2022-08-19T06:39:06;17.08;;;10.07;;
23782;SDS011;12071;50.850;4.446;2022-08-19T06:41:35;14.05;;;9.93;;
23782;SDS011;12071;50.850;4.446;2022-08-19T06:44:02;15.40;;;9.70;;
23782;SDS011;12071;50.850;4.446;2022-08-19T06:46:28;15.85;;;9.18;;
23782;SDS011;12071;50.850;4.446;2022-08-19T06:48:54;16.75;;;8.77;;
23782;SDS011;12071;50.850;4.446;2022-08-19T06:51:20;18.33;;;9.65;;
23782;SDS011;12071;50.850;4.446;2022-08-19T06:53:50;17.70;;;9.35;;
23782;SDS011;12071;50.850;4.446;2022-08-19T06:56:19;11.35;;;7.57;;
23782;SDS011;12071;50.850;4.446;2022-08-19T06:58:48;15.35;;;8.65;;
23782;SDS011;12071;50.850;4.446;2022-08-19T07:01:16;14.98;;;8.63;;
23782;SDS011;12071;50.850;4.446;2022-08-19T07:03:42;14.13;;;7.75;;
23782;SDS011;12071;50.850;4.446;2022-08-19T07:06:09;12.65;;;7.90;;
23782;SDS011;12071;50.850;4.446;2022-08-19T07:08:36;11.43;;;8.10;;
23782;SDS011;12071;50.850;4.446;2022-08-19T07:11:07;12.73;;;8.52;;
23782;SDS011;12071;50.850;4.446;2022-08-19T07:13:34;14.02;;;7.95;;
23782;SDS011;12071;50.850;4.446;2022-08-19T07:16:12;14.32;;;8.63;;
23782;SDS011;12071;50.850;4.446;2022-08-19T07:18:39;13.15;;;8.30;;
23782;SDS011;12071;50.850;4.446;2022-08-19T07:21:06;14.65;;;8.05;;
23782;SDS011;12071;50.850;4.446;2022-08-19T07:23:40;13.18;;;9.15;;
23782;SDS011;12071;50.850;4.446;2022-08-19T07:28:33;12.45;;;7.95;;
23782;SDS011;12071;50.850;4.446;2022-08-19T07:30:58;14.18;;;9.15;;
23782;SDS011;12071;50.850;4.446;2022-08-19T07:33:26;15.02;;;8.18;;
23782;SDS011;12071;50.850;4.446;2022-08-19T07:35:52;18.90;;;8.90;;
23782;SDS011;12071;50.850;4.446;2022-08-19T07:38:19;12.35;;;8.48;;
23782;SDS011;12071;50.850;4.446;2022-08-19T07:40:44;12.73;;;8.35;;
23782;SDS011;12071;50.850;4.446;2022-08-19T07:43:11;15.50;;;8.45;;
23782;SDS011;12071;50.850;4.446;2022-08-19T07:45:37;13.02;;;8.18;;
23782;SDS011;12071;50.850;4.446;2022-08-19T07:48:02;11.02;;;7.25;;
23782;SDS011;12071;50.850;4.446;2022-08-19T07:50:28;11.93;;;6.75;;
23782;SDS011;12071;50.850;4.446;2022-08-19T07:52:54;9.23;;;6.97;;
23782;SDS011;12071;50.850;4.446;2022-08-19T07:55:25;11.98;;;6.38;;
23782;SDS011;12071;50.850;4.446;2022-08-19T07:57:51;9.25;;;6.18;;
23782;SDS011;12071;50.850;4.446;2022-08-19T08:00:18;12.27;;;6.90;;
23782;SDS011;12071;50.850;4.446;2022-08-19T08:02:44;10.70;;;6.40;;
23782;SDS011;12071;50.850;4.446;2022-08-19T08:05:10;8.82;;;6.32;;
23782;SDS011;12071;50.850;4.446;2022-08-19T08:07:54;9.32;;;5.63;;
23782;SDS011;12071;50.850;4.446;2022-08-19T08:10:38;10.27;;;6.63;;
23782;SDS011;12071;50.850;4.446;2022-08-19T08:13:04;9.85;;;6.30;;
23782;SDS011;12071;50.850;4.446;2022-08-19T08:15:30;10.18;;;5.93;;
23782;SDS011;12071;50.850;4.446;2022-08-19T08:17:56;8.48;;;6.45;;
23782;SDS011;12071;50.850;4.446;2022-08-19T08:20:23;11.18;;;6.30;;
23782;SDS011;12071;50.850;4.446;2022-08-19T08:22:49;10.57;;;6.63;;
23782;SDS011;12071;50.850;4.446;2022-08-19T08:25:34;8.80;;;6.03;;
23782;SDS011;12071;50.850;4.446;2022-08-19T08:28:00;9.18;;;5.88;;
23782;SDS011;12071;50.850;4.446;2022-08-19T08:30:28;9.95;;;6.22;;
23782;SDS011;12071;50.850;4.446;2022-08-19T08:32:54;9.15;;;5.88;;
23782;SDS011;12071;50.850;4.446;2022-08-19T08:35:21;6.90;;;5.13;;
23782;SDS011;12071;50.850;4.446;2022-08-19T08:37:49;9.75;;;6.97;;
23782;SDS011;12071;50.850;4.446;2022-08-19T08:43:11;9.88;;;6.03;;
23782;SDS011;12071;50.850;4.446;2022-08-19T08:45:34;8.40;;;5.65;;
23782;SDS011;12071;50.850;4.446;2022-08-19T08:48:18;11.18;;;6.65;;
23782;SDS011;12071;50.850;4.446;2022-08-19T08:50:47;11.52;;;5.63;;
23782;SDS011;12071;50.850;4.446;2022-08-19T08:53:17;10.32;;;5.68;;
23782;SDS011;12071;50.850;4.446;2022-08-19T08:55:44;9.05;;;5.70;;
23782;SDS011;12071;50.850;4.446;2022-08-19T08:58:13;6.65;;;5.78;;
23782;SDS011;12071;50.850;4.446;2022-08-19T09:00:47;9.50;;;5.97;;
23782;SDS011;12071;50.850;4.446;2022-08-19T09:03:16;9.80;;;5.10;;
23782;SDS011;12071;50.850;4.446;2022-08-19T09:14:34;12.77;;;6.53;;
23782;SDS011;12071;50.850;4.446;2022-08-19T09:17:18;10.25;;;6.30;;
23782;SDS011;12071;50.850;4.446;2022-08-19T09:22:18;7.80;;;5.55;;
23782;SDS011;12071;50.850;4.446;2022-08-19T09:24:47;13.02;;;5.95;;
23782;SDS011;12071;50.850;4.446;2022-08-19T09:27:17;9.13;;;5.55;;
23782;SDS011;12071;50.850;4.446;2022-08-19T09:29:45;9.65;;;6.07;;
23782;SDS011;12071;50.850;4.446;2022-08-19T09:32:14;10.55;;;5.55;;
23782;SDS011;12071;50.850;4.446;2022-08-19T09:34:40;9.55;;;5.63;;
23782;SDS011;12071;50.850;4.446;2022-08-19T09:37:06;7.80;;;4.75;;
23782;SDS011;12071;50.850;4.446;2022-08-19T09:39:32;7.57;;;4.68;;
23782;SDS011;12071;50.850;4.446;2022-08-19T09:41:58;6.97;;;4.82;;
23782;SDS011;12071;50.850;4.446;2022-08-19T09:44:23;8.25;;;5.00;;
23782;SDS011;12071;50.850;4.446;2022-08-19T09:46:49;7.90;;;5.05;;
23782;SDS011;12071;50.850;4.446;2022-08-19T09:49:16;8.57;;;4.85;;
23782;SDS011;12071;50.850;4.446;2022-08-19T09:51:43;8.32;;;5.28;;
23782;SDS011;12071;50.850;4.446;2022-08-19T09:54:09;6.95;;;4.72;;
23782;SDS011;12071;50.850;4.446;2022-08-19T09:56:34;10.15;;;5.40;;
23782;SDS011;12071;50.850;4.446;2022-08-19T09:59:00;8.00;;;5.38;;
23782;SDS011;12071;50.850;4.446;2022-08-19T10:01:29;10.13;;;5.80;;
23782;SDS011;12071;50.850;4.446;2022-08-19T10:03:57;9.55;;;5.82;;
23782;SDS011;12071;50.850;4.446;2022-08-19T10:06:25;8.55;;;4.95;;
23782;SDS011;12071;50.850;4.446;2022-08-19T10:08:56;7.30;;;4.53;;
23782;SDS011;12071;50.850;4.446;2022-08-19T10:11:22;7.82;;;5.18;;
23782;SDS011;12071;50.850;4.446;2022-08-19T10:13:47;6.85;;;4.22;;
23782;SDS011;12071;50.850;4.446;2022-08-19T10:16:15;5.05;;;4.13;;
23782;SDS011;12071;50.850;4.446;2022-08-19T10:18:43;6.43;;;4.28;;
23782;SDS011;12071;50.850;4.446;2022-08-19T10:21:13;5.53;;;3.95;;
23782;SDS011;12071;50.850;4.446;2022-08-19T10:23:47;5.05;;;3.75;;
23782;SDS011;12071;50.850;4.446;2022-08-19T10:26:16;4.78;;;3.75;;
23782;SDS011;12071;50.850;4.446;2022-08-19T10:28:50;3.80;;;3.40;;
23782;SDS011;12071;50.850;4.446;2022-08-19T10:31:18;7.38;;;4.00;;
23782;SDS011;12071;50.850;4.446;2022-08-19T10:33:46;4.57;;;3.70;;
23782;SDS011;12071;50.850;4.446;2022-08-19T10:36:22;7.40;;;3.88;;
23782;SDS011;12071;50.850;4.446;2022-08-19T10:38:49;4.47;;;3.45;;
23782;SDS011;12071;50.850;4.446;2022-08-19T10:41:17;5.65;;;4.10;;
23782;SDS011;12071;50.850;4.446;2022-08-19T10:43:46;5.75;;;3.75;;
23782;SDS011;12071;50.850;4.446;2022-08-19T10:46:13;5.97;;;4.82;;
23782;SDS011;12071;50.850;4.446;2022-08-19T10:48:40;9.43;;;5.57;;
23782;SDS011;12071;50.850;4.446;2022-08-19T10:51:07;9.73;;;5.82;;
23782;SDS011;12071;50.850;4.446;2022-08-19T10:53:52;7.30;;;5.18;;
23782;SDS011;12071;50.850;4.446;2022-08-19T10:56:19;7.03;;;5.47;;
23782;SDS011;12071;50.850;4.446;2022-08-19T10:59:03;7.82;;;5.55;;
23782;SDS011;12071;50.850;4.446;2022-08-19T11:01:30;7.70;;;5.80;;
23782;SDS011;12071;50.850;4.446;2022-08-19T11:03:59;8.65;;;6.47;;
23782;SDS011;12071;50.850;4.446;2022-08-19T11:06:26;8.95;;;6.30;;
23782;SDS011;12071;50.850;4.446;2022-08-19T11:08:55;9.40;;;6.63;;
23782;SDS011;12071;50.850;4.446;2022-08-19T11:11:21;10.23;;;6.70;;
23782;SDS011;12071;50.850;4.446;2022-08-19T11:13:49;9.77;;;6.82;;
23782;SDS011;12071;50.850;4.446;2022-08-19T11:16:19;10.82;;;7.18;;
23782;SDS011;12071;50.850;4.446;2022-08-19T11:18:47;11.57;;;8.10;;
23782;SDS011;12071;50.850;4.446;2022-08-19T11:23:44;12.27;;;7.80;;
23782;SDS011;12071;50.850;4.446;2022-08-19T11:26:11;9.13;;;8.00;;
23782;SDS011;12071;50.850;4.446;2022-08-19T11:28:37;9.10;;;6.60;;
23782;SDS011;12071;50.850;4.446;2022-08-19T11:31:04;12.73;;;6.82;;
23782;SDS011;12071;50.850;4.446;2022-08-19T11:33:34;8.23;;;6.57;;
23782;SDS011;12071;50.850;4.446;2022-08-19T11:35:59;7.35;;;6.03;;
23782;SDS011;12071;50.850;4.446;2022-08-19T11:38:26;12.27;;;7.40;;
23782;SDS011;12071;50.850;4.446;2022-08-19T11:41:00;10.38;;;7.88;;
23782;SDS011;12071;50.850;4.446;2022-08-19T11:43:28;10.57;;;8.68;;
23782;SDS011;12071;50.850;4.446;2022-08-19T11:45:54;14.52;;;9.10;;
23782;SDS011;12071;50.850;4.446;2022-08-19T11:48:20;13.77;;;9.60;;
23782;SDS011;12071;50.850;4.446;2022-08-19T11:50:47;10.60;;;9.18;;
23782;SDS011;12071;50.850;4.446;2022-08-19T11:53:13;14.00;;;9.23;;
23782;SDS011;12071;50.850;4.446;2022-08-19T11:55:39;11.18;;;8.98;;
23782;SDS011;12071;50.850;4.446;2022-08-19T11:58:05;12.75;;;9.57;;
23782;SDS011;12071;50.850;4.446;2022-08-19T12:00:32;12.75;;;8.57;;
23782;SDS011;12071;50.850;4.446;2022-08-19T12:03:00;12.88;;;9.23;;
23782;SDS011;12071;50.850;4.446;2022-08-19T12:05:26;12.88;;;8.77;;
23782;SDS011;12071;50.850;4.446;2022-08-19T12:07:52;12.02;;;7.88;;
23782;SDS011;12071;50.850;4.446;2022-08-19T12:10:19;13.70;;;7.57;;
23782;SDS011;12071;50.850;4.446;2022-08-19T12:12:45;9.63;;;7.30;;
23782;SDS011;12071;50.850;4.446;2022-08-19T12:15:12;9.32;;;6.75;;
23782;SDS011;12071;50.850;4.446;2022-08-19T12:17:39;8.45;;;6.20;;
23782;SDS011;12071;50.850;4.446;2022-08-19T12:20:12;8.18;;;5.82;;
23782;SDS011;12071;50.850;4.446;2022-08-19T12:22:38;7.90;;;6.05;;
23782;SDS011;12071;50.850;4.446;2022-08-19T12:25:09;6.53;;;5.60;;
23782;SDS011;12071;50.850;4.446;2022-08-19T12:27:36;6.80;;;5.47;;
23782;SDS011;12071;50.850;4.446;2022-08-19T12:30:03;5.85;;;4.68;;
23782;SDS011;12071;50.850;4.446;2022-08-19T12:32:30;7.28;;;5.07;;
23782;SDS011;12071;50.850;4.446;2022-08-19T12:34:55;5.97;;;4.32;;
23782;SDS011;12071;50.850;4.446;2022-08-19T12:37:21;8.20;;;4.97;;
23782;SDS011;12071;50.850;4.446;2022-08-19T12:39:46;5.15;;;4.05;;
23782;SDS011;12071;50.850;4.446;2022-08-19T12:42:13;5.57;;;4.20;;
23782;SDS011;12071;50.850;4.446;2022-08-19T12:44:40;5.43;;;3.95;;
23782;SDS011;12071;50.850;4.446;2022-08-19T12:47:08;7.00;;;3.75;;
23782;SDS011;12071;50.850;4.446;2022-08-19T12:49:34;6.25;;;4.43;;
23782;SDS011;12071;50.850;4.446;2022-08-19T12:52:04;5.05;;;3.63;;
23782;SDS011;12071;50.850;4.446;2022-08-19T12:54:32;6.05;;;3.60;;
23782;SDS011;12071;50.850;4.446;2022-08-19T12:56:57;9.43;;;3.38;;
23782;SDS011;12071;50.850;4.446;2022-08-19T12:59:24;3.08;;;2.70;;
23782;SDS011;12071;50.850;4.446;2022-08-19T13:01:50;3.30;;;2.53;;
23782;SDS011;12071;50.850;4.446;2022-08-19T13:04:16;3.08;;;2.35;;
23782;SDS011;12071;50.850;4.446;2022-08-19T13:06:42;5.20;;;2.03;;
23782;SDS011;12071;50.850;4.446;2022-08-19T13:09:08;3.72;;;2.40;;
23782;SDS011;12071;50.850;4.446;2022-08-19T13:11:34;3.63;;;2.35;;
23782;SDS011;12071;50.850;4.446;2022-08-19T13:14:00;4.82;;;2.55;;
23782;SDS011;12071;50.850;4.446;2022-08-19T13:16:28;7.43;;;3.10;;
23782;SDS011;12071;50.850;4.446;2022-08-19T13:18:55;3.28;;;2.35;;
23782;SDS011;12071;50.850;4.446;2022-08-19T13:21:24;4.05;;;2.15;;
23782;SDS011;12071;50.850;4.446;2022-08-19T13:23:52;3.70;;;2.10;;
23782;SDS011;12071;50.850;4.446;2022-08-19T13:26:19;3.65;;;2.03;;
23782;SDS011;12071;50.850;4.446;2022-08-19T13:28:45;2.10;;;1.95;;
23782;SDS011;12071;50.850;4.446;2022-08-19T13:31:30;5.47;;;2.30;;
23782;SDS011;12071;50.850;4.446;2022-08-19T13:34:16;4.05;;;2.10;;
23782;SDS011;12071;50.850;4.446;2022-08-19T13:36:52;4.35;;;2.50;;
23782;SDS011;12071;50.850;4.446;2022-08-19T13:39:18;2.70;;;1.98;;
23782;SDS011;12071;50.850;4.446;2022-08-19T13:41:46;2.05;;;1.73;;
23782;SDS011;12071;50.850;4.446;2022-08-19T13:44:13;2.95;;;1.42;;
23782;SDS011;12071;50.850;4.446;2022-08-19T13:46:40;6.47;;;1.60;;
23782;SDS011;12071;50.850;4.446;2022-08-19T13:49:09;2.60;;;1.60;;
23782;SDS011;12071;50.850;4.446;2022-08-19T13:51:35;2.35;;;1.15;;
23782;SDS011;12071;50.850;4.446;2022-08-19T13:54:04;4.15;;;1.58;;
23782;SDS011;12071;50.850;4.446;2022-08-19T13:56:30;2.75;;;1.60;;
23782;SDS011;12071;50.850;4.446;2022-08-19T13:58:55;3.85;;;1.38;;
23782;SDS011;12071;50.850;4.446;2022-08-19T14:01:23;6.43;;;1.30;;
23782;SDS011;12071;50.850;4.446;2022-08-19T14:03:49;1.63;;;1.30;;
23782;SDS011;12071;50.850;4.446;2022-08-19T14:06:15;4.50;;;1.80;;
23782;SDS011;12071;50.850;4.446;2022-08-19T14:08:41;2.35;;;1.60;;
23782;SDS011;12071;50.850;4.446;2022-08-19T14:11:08;4.07;;;1.85;;
23782;SDS011;12071;50.850;4.446;2022-08-19T14:13:34;2.83;;;1.52;;
23782;SDS011;12071;50.850;4.446;2022-08-19T14:16:00;3.45;;;1.63;;
23782;SDS011;12071;50.850;4.446;2022-08-19T14:18:25;4.60;;;1.55;;
23782;SDS011;12071;50.850;4.446;2022-08-19T14:20:51;2.55;;;1.67;;
23782;SDS011;12071;50.850;4.446;2022-08-19T14:23:17;3.50;;;1.50;;
23782;SDS011;12071;50.850;4.446;2022-08-19T14:25:43;3.67;;;1.70;;
23782;SDS011;12071;50.850;4.446;2022-08-19T14:28:09;3.75;;;1.80;;
23782;SDS011;12071;50.850;4.446;2022-08-19T14:30:35;2.60;;;1.73;;
23782;SDS011;12071;50.850;4.446;2022-08-19T14:33:03;5.25;;;1.83;;
23782;SDS011;12071;50.850;4.446;2022-08-19T14:35:30;5.55;;;1.60;;
23782;SDS011;12071;50.850;4.446;2022-08-19T14:38:01;2.70;;;1.80;;
23782;SDS011;12071;50.850;4.446;2022-08-19T14:40:30;4.88;;;1.95;;
23782;SDS011;12071;50.850;4.446;2022-08-19T14:42:58;1.67;;;1.30;;
23782;SDS011;12071;50.850;4.446;2022-08-19T14:45:29;1.67;;;1.10;;
23782;SDS011;12071;50.850;4.446;2022-08-19T14:48:00;5.85;;;1.00;;
23782;SDS011;12071;50.850;4.446;2022-08-19T14:50:26;0.80;;;0.80;;
23782;SDS011;12071;50.850;4.446;2022-08-19T14:53:00;1.23;;;0.85;;
23782;SDS011;12071;50.850;4.446;2022-08-19T14:55:28;3.10;;;0.90;;
23782;SDS011;12071;50.850;4.446;2022-08-19T14:57:54;6.50;;;1.30;;
23782;SDS011;12071;50.850;4.446;2022-08-19T15:00:20;4.35;;;1.40;;
23782;SDS011;12071;50.850;4.446;2022-08-19T15:02:48;1.88;;;1.10;;